Dades meteomassalio
Diari Summary for Gener 31, 2017 Units:  Metric    English   Both
« Previous Day
Next Day »
Diari Semanal Mensual Anual Personalitzat
  Maxima: Minima: Mijana:
Temperatura: -17.8 °C -16.1 °C -12.6 °C
Rosada: -17.8 °C -16.6 °C -14.2 °C
Humitat: Humidity % 61 % 84 %
Velocitat del vent: 0 km/h 0 km/h 2.3 km/h
Racha vent: 0 km/h - -
Vent:- - ENE
Pressio: 0 hPa 34395 hPa -
Pluja: 7.62 mm    
Historical Graphs
 
 
Tabular Data for Gener 31, 2017
Time Temperature Dew Point Pressure Wind Wind Speed Wind Gust Humidity Rainfall Rate (Hourly) solar Conditions
-17.8 °C -17.8 °C 0 hPa Calm     Humidity % 0 mm SolarRadiationWatts/m^2 W/m2 Conditions
00:04 -13.8 °C -14.5 °C 34533.8 hPa Calm     92 % 0 mm 0.0 W/m2 CLR
00:09 -13.8 °C -14.6 °C 34533.8 hPa Calm     92 % 0 mm 0.0 W/m2 CLR
00:14 -13.9 °C -14.6 °C 34533.8 hPa Calm     92 % 0 mm 0.0 W/m2 CLR
00:19 -13.9 °C -14.6 °C 34533.8 hPa Calm     92 % 0 mm 0.0 W/m2 CLR
00:24 -13.9 °C -14.6 °C 34533.8 hPa Calm     92 % 0 mm 0.0 W/m2 CLR
00:29 -13.9 °C -14.6 °C 34533.8 hPa Calm     92 % 0 mm 0.0 W/m2 CLR
00:34 -14 °C -14.7 °C 34533.8 hPa Calm     92 % 0 mm 0.0 W/m2 CLR
00:39 -14 °C -14.7 °C 34533.8 hPa Calm     92 % 0 mm 0.0 W/m2 CLR
00:44 -14 °C -14.7 °C 34533.8 hPa Calm     92 % 0 mm 0.0 W/m2 CLR
00:49 -14.1 °C -14.8 °C 34533.8 hPa Calm     92 % 0 mm 0.0 W/m2 CLR
00:54 -14 °C -14.6 °C 34533.8 hPa Calm     93 % 0 mm 0.0 W/m2 CLR
00:59 -13.9 °C -14.6 °C 34533.8 hPa Calm     93 % 0 mm 0.0 W/m2 CLR
01:04 -13.9 °C -14.6 °C 34533.8 hPa Calm     93 % 0 mm 0.0 W/m2 CLR
01:09 -14.1 °C -14.7 °C 34520.3 hPa Calm     92 % 0 mm 0.0 W/m2 CLR
01:14 -14.2 °C -14.8 °C 34520.3 hPa Calm     92 % 0 mm 0.0 W/m2 CLR
01:19 -14.3 °C -14.9 °C 34520.3 hPa Calm     92 % 0 mm 0.0 W/m2 CLR
01:24 -14.3 °C -14.9 °C 34520.3 hPa Calm     92 % 0 mm 0.0 W/m2 CLR
01:29 -14.3 °C -15 °C 34520.3 hPa Calm     92 % 0 mm 0.0 W/m2 CLR
01:34 -14.3 °C -14.9 °C 34520.3 hPa Calm     93 % 0 mm 0.0 W/m2 CLR
01:39 -14.4 °C -14.9 °C 34520.3 hPa Calm     93 % 0 mm 0.0 W/m2 CLR
01:44 -14.5 °C -15.2 °C 34520.3 hPa Calm     92 % 0 mm 0.0 W/m2 CLR
01:49 -14.6 °C -15.2 °C 34520.3 hPa Calm     93 % 0 mm 0.0 W/m2 CLR
01:54 -14.6 °C -15.2 °C 34520.3 hPa Calm     93 % 0 mm 0.0 W/m2 CLR
01:59 -14.6 °C -15.2 °C 34520.3 hPa Calm     93 % 0 mm 0.0 W/m2 CLR
02:04 -14.6 °C -15.2 °C 34520.3 hPa Calm     93 % 0 mm 0.0 W/m2 CLR
02:09 -14.6 °C -15.2 °C 34520.3 hPa Calm     93 % 0 mm 0.0 W/m2 CLR
02:14 -14.6 °C -15.2 °C 34520.3 hPa Calm     93 % 0 mm 0.0 W/m2 CLR
02:19 -14.7 °C -15.2 °C 34520.3 hPa Calm     93 % 0 mm 0.0 W/m2 CLR
02:24 -14.7 °C -15.3 °C 34520.3 hPa Calm     93 % 0 mm 0.0 W/m2 CLR
02:29 -14.8 °C -15.3 °C 34520.3 hPa Calm     93 % 0 mm 0.0 W/m2 CLR
02:34 -14.8 °C -15.4 °C 34520.3 hPa Calm     93 % 0 mm 0.0 W/m2 CLR
02:39 -14.8 °C -15.4 °C 34520.3 hPa Calm     93 % 0 mm 0.0 W/m2 CLR
02:44 -14.8 °C -15.4 °C 34520.3 hPa Calm     93 % 0 mm 0.0 W/m2 CLR
02:49 -14.7 °C -15.3 °C 34520.3 hPa Calm     93 % 0 mm 0.0 W/m2 CLR
02:54 -14.7 °C -15.3 °C 34520.3 hPa Calm     93 % 0 mm 0.0 W/m2 CLR
02:59 -14.8 °C -15.4 °C 34520.3 hPa Calm     93 % 0 mm 0.0 W/m2 CLR
03:04 -14.8 °C -15.4 °C 34520.3 hPa Calm     93 % 0 mm 0.0 W/m2 CLR
03:09 -14.8 °C -15.4 °C 34520.3 hPa Calm     93 % 0 mm 0.0 W/m2 CLR
03:14 -14.9 °C -15.4 °C 34520.3 hPa Calm     93 % 0 mm 0.0 W/m2 CLR
03:19 -14.9 °C -15.5 °C 34520.3 hPa Calm     93 % 0 mm 0.0 W/m2 CLR
03:24 -15 °C -15.6 °C 34520.3 hPa Calm     93 % 0 mm 0.0 W/m2 CLR
03:29 -15.1 °C -15.6 °C 34520.3 hPa Calm     93 % 0 mm 0.0 W/m2 CLR
03:34 -15 °C -15.6 °C 34520.3 hPa Calm     93 % 0 mm 0.0 W/m2 CLR
03:39 -14.9 °C -15.5 °C 34520.3 hPa Calm     93 % 0 mm 0.0 W/m2 CLR
03:44 -14.9 °C -15.5 °C 34520.3 hPa Calm     93 % 0 mm 0.0 W/m2 CLR
03:49 -15 °C -15.6 °C 34520.3 hPa Calm     93 % 0 mm 0.0 W/m2 CLR
03:54 -15.1 °C -15.7 °C 34520.3 hPa Calm     93 % 0 mm 0.0 W/m2 CLR
03:59 -15.1 °C -15.7 °C 34510.1 hPa Calm     93 % 0 mm 0.0 W/m2 CLR
04:04 -15.1 °C -15.7 °C 34510.1 hPa Calm     93 % 0 mm 0.0 W/m2 CLR
04:09 -15.1 °C -15.7 °C 34510.1 hPa Calm     93 % 0 mm 0.0 W/m2 CLR
04:14 -15.1 °C -15.7 °C 34510.1 hPa Calm     93 % 0 mm 0.0 W/m2 CLR
04:19 -15.2 °C -15.8 °C 34510.1 hPa Calm     93 % 0 mm 0.0 W/m2 CLR
04:24 -15.3 °C -15.9 °C 34510.1 hPa Calm     93 % 0 mm 0.0 W/m2 CLR
04:29 -15.3 °C -15.9 °C 34510.1 hPa Calm     93 % 0 mm 0.0 W/m2 CLR
04:34 -15.3 °C -15.9 °C 34510.1 hPa Calm     93 % 0 mm 0.0 W/m2 CLR
04:39 -15.3 °C -15.9 °C 34510.1 hPa Calm     93 % 0 mm 0.0 W/m2 CLR
04:44 -15.2 °C -15.8 °C 34510.1 hPa Calm     93 % 0 mm 0.0 W/m2 CLR
04:49 -15.3 °C -15.9 °C 34510.1 hPa Calm     93 % 0 mm 0.0 W/m2 CLR
04:54 -15.4 °C -15.9 °C 34510.1 hPa Calm     93 % 0 mm 0.0 W/m2 CLR
04:59 -15.4 °C -16 °C 34510.1 hPa Calm     93 % 0 mm 0.0 W/m2 CLR
05:04 -15.4 °C -15.9 °C 34510.1 hPa Calm     94 % 0 mm 0.0 W/m2 CLR
05:09 -15.4 °C -15.9 °C 34510.1 hPa Calm     94 % 0 mm 0.0 W/m2 CLR
05:14 -15.4 °C -16 °C 34510.1 hPa Calm     93 % 0 mm 0.0 W/m2 CLR
05:19 -15.4 °C -16.1 °C 34510.1 hPa Calm     93 % 0 mm 0.0 W/m2 CLR
05:24 -15.4 °C -15.9 °C 34510.1 hPa Calm     94 % 0 mm 0.0 W/m2 CLR
05:29 -15.4 °C -16 °C 34510.1 hPa Calm     93 % 0 mm 0.0 W/m2 CLR
05:34 -15.4 °C -16.1 °C 34510.1 hPa Calm     93 % 0 mm 0.0 W/m2 CLR
05:39 -15.5 °C -16.1 °C 34510.1 hPa Calm     93 % 0 mm 0.0 W/m2 CLR
05:44 -15.5 °C -16.1 °C 34510.1 hPa Calm     93 % 0 mm 0.0 W/m2 CLR
05:50 -15.5 °C -16.1 °C 34510.1 hPa Calm     93 % 0 mm 0.0 W/m2 CLR
05:55 -15.6 °C -16.2 °C 34510.1 hPa Calm     93 % 0 mm 0.0 W/m2 CLR
06:00 -15.7 °C -16.3 °C 34510.1 hPa Calm     93 % 0 mm 0.0 W/m2 CLR
06:05 -15.6 °C -16.1 °C 34520.3 hPa Calm     94 % 0 mm 0.0 W/m2 CLR
06:10 -15.5 °C -16 °C 34510.1 hPa Calm     94 % 0 mm 0.0 W/m2 CLR
06:15 -15.3 °C -15.8 °C 34510.1 hPa Calm     94 % 0 mm 0.0 W/m2 CLR
06:20 -15.4 °C -15.9 °C 34510.1 hPa Calm     94 % 0 mm 0.0 W/m2 CLR
06:25 -15.6 °C -16.2 °C 34510.1 hPa Calm     93 % 0 mm 0.0 W/m2 CLR
06:30 -15.7 °C -16.3 °C 34510.1 hPa Calm     93 % 0 mm 0.0 W/m2 CLR
06:35 -15.7 °C -16.3 °C 34510.1 hPa Calm     93 % 0 mm 0.0 W/m2 CLR
06:40 -15.7 °C -16.2 °C 34510.1 hPa Calm     94 % 0 mm 0.0 W/m2 CLR
06:45 -15.7 °C -16.2 °C 34520.3 hPa Calm     94 % 0 mm 0.0 W/m2 CLR
06:50 -15.6 °C -16.1 °C 34520.3 hPa Calm     94 % 0 mm 0.0 W/m2 CLR
06:55 -15.6 °C -16.1 °C 34510.1 hPa Calm     94 % 0 mm 0.0 W/m2 CLR
07:00 -15.6 °C -16.1 °C 34510.1 hPa Calm     94 % 0 mm 0.0 W/m2 CLR
07:05 -15.5 °C -16 °C 34510.1 hPa Calm     94 % 0 mm 0.0 W/m2 CLR
07:10 -15.5 °C -16 °C 34520.3 hPa Calm     94 % 0 mm 0.0 W/m2 CLR
07:15 -15.6 °C -16.1 °C 34520.3 hPa Calm     94 % 0 mm 0.0 W/m2 CLR
07:20 -15.7 °C -16.3 °C 34520.3 hPa Calm     93 % 0 mm 0.0 W/m2 CLR
07:25 -15.8 °C -16.3 °C 34520.3 hPa Calm     93 % 0 mm 0.0 W/m2 CLR
07:30 -15.9 °C -16.4 °C 34520.3 hPa Calm     93 % 0 mm 0.0 W/m2 CLR
07:35 -15.9 °C -16.4 °C 34520.3 hPa Calm     94 % 0 mm 0.0 W/m2 CLR
07:40 -15.9 °C -16.4 °C 34520.3 hPa Calm     94 % 0 mm 0.0 W/m2 CLR
07:45 -15.9 °C -16.4 °C 34520.3 hPa Calm     94 % 0 mm 0.0 W/m2 CLR
07:50 -15.9 °C -16.4 °C 34520.3 hPa Calm     94 % 0 mm 0.0 W/m2 CLR
07:55 -15.9 °C -16.4 °C 34520.3 hPa Calm     94 % 0 mm 0.0 W/m2 CLR
08:00 -15.9 °C -16.4 °C 34520.3 hPa Calm     94 % 0 mm 0.0 W/m2 CLR
08:05 -16 °C -16.5 °C 34520.3 hPa Calm     94 % 0 mm 0.0 W/m2 OVC
08:10 -16.1 °C -16.6 °C 34520.3 hPa Calm     94 % 0 mm 0.0 W/m2 OVC
08:15 -16 °C -16.5 °C 34520.3 hPa Calm     94 % 7.62 mm 5.0 W/m2 RA
08:20 -15.9 °C -16.4 °C 34520.3 hPa Calm     94 % 7.62 mm 7.0 W/m2 BKN
08:25 -15.9 °C -16.4 °C 34520.3 hPa Calm     94 % 7.62 mm 11.0 W/m2 BKN
08:30 -15.9 °C -16.4 °C 34520.3 hPa Calm     94 % 7.62 mm 14.0 W/m2 BKN
08:35 -15.9 °C -16.4 °C 34520.3 hPa Calm     94 % 7.62 mm 16.0 W/m2 BKN
08:40 -15.9 °C -16.4 °C 34520.3 hPa Calm     94 % 7.62 mm 25.0 W/m2 BKN
08:45 -15.8 °C -16.3 °C 34520.3 hPa Calm     94 % 7.62 mm 30.0 W/m2 BKN
08:50 -15.8 °C -16.3 °C 34520.3 hPa Calm     94 % 7.62 mm 37.0 W/m2 BKN
08:55 -15.7 °C -16.2 °C 34520.3 hPa Calm     94 % 7.62 mm 49.0 W/m2 SCT
09:00 -15.5 °C -16 °C 34520.3 hPa Calm     94 % 7.62 mm 53.0 W/m2 SCT
09:05 -15.4 °C -15.9 °C 34533.8 hPa Calm     94 % 7.62 mm 84.0 W/m2 FEW
09:10 -15.2 °C -15.7 °C 34520.3 hPa Calm     94 % 7.62 mm 98.0 W/m2 CLR
09:15 -15.1 °C -15.6 °C 34520.3 hPa Calm     94 % 0 mm 93.0 W/m2 CLR
09:20 -14.9 °C -15.4 °C 34520.3 hPa Calm     94 % 0 mm 123.0 W/m2 CLR
09:25 -14.7 °C -15.2 °C 34520.3 hPa Calm     94 % 0 mm 149.0 W/m2 CLR
09:30 -14.5 °C -14.9 °C 34520.3 hPa Calm     94 % 0 mm 137.0 W/m2 CLR
09:35 -14.3 °C -14.8 °C 34520.3 hPa Calm     94 % 0 mm 135.0 W/m2 CLR
09:40 -14.2 °C -14.7 °C 34520.3 hPa Calm     94 % 0 mm 179.0 W/m2 CLR
09:45 -14.1 °C -14.6 °C 34520.3 hPa Calm     93 % 0 mm 135.0 W/m2 CLR
09:50 -13.9 °C -14.5 °C 34520.3 hPa Calm     93 % 0 mm 134.0 W/m2 CLR
09:55 -13.8 °C -14.4 °C 34520.3 hPa Calm     93 % 0 mm 204.0 W/m2 CLR
10:00 -13.7 °C -14.3 °C 34520.3 hPa Calm     93 % 0 mm 211.0 W/m2 CLR
10:05 -13.6 °C -14.3 °C 34520.3 hPa Calm     92 % 0 mm 244.0 W/m2 CLR
10:10 -13.4 °C -14.1 °C 34520.3 hPa Calm     92 % 0 mm 248.0 W/m2 CLR
10:15 -13.2 °C -13.9 °C 34520.3 hPa Calm     92 % 0 mm 302.0 W/m2 CLR
10:20 -13 °C -13.8 °C 34520.3 hPa Calm     91 % 0 mm 258.0 W/m2 CLR
10:25 -12.7 °C -13.6 °C 34520.3 hPa Calm     90 % 0 mm 257.0 W/m2 CLR
10:30 -12.6 °C -13.7 °C 34520.3 hPa Calm     88 % 0 mm 308.0 W/m2 CLR
10:35 -12.5 °C -13.6 °C 34520.3 hPa Calm     88 % 0 mm 374.0 W/m2 CLR
10:40 -12.3 °C -13.5 °C 34520.3 hPa Calm     87 % 0 mm 343.0 W/m2 CLR
10:45 -12.2 °C -13.3 °C 34520.3 hPa Calm     87 % 0 mm 360.0 W/m2 CLR
10:50 -11.9 °C -13.2 °C 34520.3 hPa Calm     86 % 0 mm 385.0 W/m2 CLR
10:55 -11.8 °C -13.2 °C 34520.3 hPa Calm     85 % 0 mm 341.0 W/m2 CLR
11:00 -11.6 °C -13.1 °C 34520.3 hPa Calm     84 % 0 mm 355.0 W/m2 CLR
11:05 -11.5 °C -13.1 °C 34520.3 hPa Calm     82 % 0 mm 297.0 W/m2 CLR
11:10 -11.3 °C -13.1 °C 34520.3 hPa Calm     81 % 0 mm 327.0 W/m2 CLR
11:15 -11.2 °C -13 °C 34520.3 hPa Calm     81 % 0 mm 304.0 W/m2 CLR
11:20 -11.1 °C -12.9 °C 34520.3 hPa Calm     81 % 0 mm 403.0 W/m2 CLR
11:25 -10.9 °C -12.8 °C 34510.1 hPa Calm     80 % 0 mm 434.0 W/m2 CLR
11:30 -10.9 °C -12.8 °C 34510.1 hPa Calm     79 % 0 mm 418.0 W/m2 CLR
11:35 -10.7 °C -12.6 °C 34510.1 hPa Calm     79 % 0 mm 427.0 W/m2 CLR
11:40 -10.4 °C -12.6 °C 34510.1 hPa Calm     78 % 0 mm 446.0 W/m2 CLR
11:45 -10.3 °C -12.4 °C 34510.1 hPa Calm     77 % 0 mm 466.0 W/m2 CLR
11:50 -10.1 °C -12.4 °C 34510.1 hPa Calm     76 % 0 mm 480.0 W/m2 CLR
11:55 -9.9 °C -12.6 °C 34496.6 hPa Calm     73 % 0 mm 492.0 W/m2 CLR
12:01 -9.8 °C -12.4 °C 34496.6 hPa Calm     73 % 0 mm 485.0 W/m2 CLR
12:06 -9.7 °C -12.5 °C 34496.6 hPa Calm     72 % 0 mm 480.0 W/m2 CLR
12:11 -9.6 °C -12.4 °C 34496.6 hPa Calm     72 % 0 mm 501.0 W/m2 CLR
12:16 -9.5 °C -12.4 °C 34496.6 hPa Calm     71 % 0 mm 404.0 W/m2 CLR
12:21 -9.4 °C -12.4 °C 34486.4 hPa Calm     70 % 0 mm 429.0 W/m2 CLR
12:26 -9.3 °C -12.3 °C 34486.4 hPa Calm     71 % 0 mm 540.0 W/m2 CLR
12:31 -9.3 °C -12.4 °C 34486.4 hPa Calm     69 % 0 mm 464.0 W/m2 CLR
12:36 -9.2 °C -12.2 °C 34476.3 hPa Calm     70 % 0 mm 541.0 W/m2 CLR
12:41 -9.1 °C -12.3 °C 34476.3 hPa Calm     69 % 0 mm 580.0 W/m2 CLR
12:46 -9.1 °C -12.3 °C 34476.3 hPa Calm     68 % 0 mm 626.0 W/m2 CLR
12:51 -8.9 °C -12.1 °C 34476.3 hPa NNE 9 km/h 9 km/h 69 % 0 mm 624.0 W/m2 CLR
12:56 -8.7 °C -12.1 °C 34462.7 hPa Calm     67 % 0 mm 417.0 W/m2 CLR
13:01 -8.7 °C -12.6 °C 34462.7 hPa Calm     63 % 0 mm 487.0 W/m2 CLR
13:06 -8.7 °C -12.6 °C 34462.7 hPa East 9 km/h 9 km/h 63 % 0 mm 492.0 W/m2 CLR
13:11 -8.7 °C -12.7 °C 34462.7 hPa East 17.9 km/h 17.9 km/h 62 % 0 mm 601.0 W/m2 CLR
13:16 -8.5 °C -12.6 °C 34452.6 hPa ESE 12.9 km/h 12.9 km/h 62 % 0 mm 570.0 W/m2 CLR
13:21 -8.4 °C -12.4 °C 34452.6 hPa East 9 km/h 9 km/h 62 % 0 mm 543.0 W/m2 CLR
13:26 -8.4 °C -11.9 °C 34452.6 hPa ENE 3.1 km/h   66 % 0 mm 524.0 W/m2 CLR
13:31 -8.3 °C -12.2 °C 34452.6 hPa ENE 9 km/h   64 % 0 mm 492.0 W/m2 CLR
13:36 -8.3 °C -12.2 °C 34442.4 hPa NE 17.9 km/h 17.9 km/h 64 % 0 mm 450.0 W/m2 CLR
13:41 -8.4 °C -12.2 °C 34442.4 hPa NE 11.9 km/h 11.9 km/h 64 % 0 mm 510.0 W/m2 CLR
13:46 -8.3 °C -12.1 °C 34428.8 hPa ENE 6 km/h   64 % 0 mm 425.0 W/m2 CLR
13:51 -8.3 °C -12.2 °C 34428.8 hPa Calm     63 % 0 mm 504.0 W/m2 CLR
13:56 -8.3 °C -12.1 °C 34428.8 hPa ENE 9 km/h 9 km/h 64 % 0 mm 504.0 W/m2 CLR
14:01 -8.2 °C -12.1 °C 34428.8 hPa NE 15 km/h 15 km/h 64 % 0 mm 482.0 W/m2 CLR
14:06 -8.2 °C -12 °C 34418.7 hPa ENE 17.9 km/h 17.9 km/h 64 % 0 mm 487.0 W/m2 CLR
14:11 -8.2 °C -12 °C 34418.7 hPa ENE 17.9 km/h 17.9 km/h 64 % 0 mm 478.0 W/m2 CLR
14:16 -8.2 °C -12.1 °C 34418.7 hPa ENE 7.7 km/h 7.7 km/h 63 % 0 mm 475.0 W/m2 CLR
14:21 -8.2 °C -12 °C 34418.7 hPa ENE 11.9 km/h 11.9 km/h 64 % 0 mm 468.0 W/m2 CLR
14:26 -8.2 °C -12 °C 34405.1 hPa Calm     64 % 0 mm 459.0 W/m2 CLR
14:31 -8.1 °C -11.8 °C 34405.1 hPa Calm   1 km/h 65 % 0 mm 466.0 W/m2 CLR
14:36 -7.9 °C -11.8 °C 34405.1 hPa ENE 10.3 km/h 10.3 km/h 64 % 0 mm 457.0 W/m2 CLR
14:41 -8 °C -12.1 °C 34405.1 hPa ENE 10.3 km/h 10.3 km/h 62 % 0 mm 464.0 W/m2 CLR
14:46 -8 °C -12.1 °C 34405.1 hPa East 15 km/h 15 km/h 62 % 0 mm 425.0 W/m2 CLR
14:51 -8 °C -11.9 °C 34395 hPa East 9 km/h 9 km/h 63 % 0 mm 438.0 W/m2 CLR
14:56 -7.9 °C -12.2 °C 34395 hPa East 15 km/h   61 % 0 mm 439.0 W/m2 CLR
15:01 -7.9 °C -12.1 °C 34395 hPa East 20.9 km/h 20.9 km/h 62 % 0 mm 424.0 W/m2 CLR
15:06 -8 °C -12.1 °C 34395 hPa East 9 km/h 9 km/h 62 % 0 mm 420.0 W/m2 CLR
15:11 -8 °C -11.9 °C 34395 hPa ENE 11.9 km/h 11.9 km/h 63 % 0 mm 415.0 W/m2 CLR
15:16 -8 °C -11.9 °C 34395 hPa ENE 9 km/h 9 km/h 63 % 0 mm 399.0 W/m2 CLR
15:21 -8 °C -12.1 °C 34395 hPa ENE 20.8 km/h 20.8 km/h 62 % 0 mm 367.0 W/m2 CLR
15:26 -8 °C -11.8 °C 34395 hPa ENE 17.9 km/h 17.9 km/h 64 % 0 mm 392.0 W/m2 CLR
15:31 -8.1 °C -12 °C 34395 hPa ENE 18.2 km/h 18.2 km/h 63 % 0 mm 378.0 W/m2 CLR
15:36 -8.1 °C -12.1 °C 34395 hPa NE 26.9 km/h 26.9 km/h 63 % 0 mm 353.0 W/m2 CLR
15:41 -8.2 °C -12.1 °C 34395 hPa NE 29.8 km/h 29.8 km/h 63 % 0 mm 343.0 W/m2 CLR
15:46 -8.2 °C -12.1 °C 34395 hPa NE 9 km/h 9 km/h 63 % 0 mm 330.0 W/m2 CLR
15:51 -8.1 °C -11.8 °C 34395 hPa NE 9 km/h 9 km/h 65 % 0 mm 330.0 W/m2 CLR
15:56 -8.2 °C -11.8 °C 34395 hPa NE 20.9 km/h 20.9 km/h 65 % 0 mm 294.0 W/m2 CLR
16:01 -8.2 °C -11.9 °C 34395 hPa NE 11.9 km/h 11.9 km/h 65 % 0 mm 304.0 W/m2 CLR
16:06 -8.2 °C -11.9 °C 34395 hPa NE 11.9 km/h 11.9 km/h 65 % 0 mm 295.0 W/m2 CLR
16:11 -8.2 °C -11.9 °C 34395 hPa NE 17.9 km/h 17.9 km/h 65 % 0 mm 274.0 W/m2 CLR
16:16 -8.2 °C -11.9 °C 34395 hPa NE 11.9 km/h 11.9 km/h 65 % 0 mm 271.0 W/m2 CLR
16:21 -8.2 °C -12.1 °C 34395 hPa NE 11.9 km/h 11.9 km/h 64 % 0 mm 250.0 W/m2 CLR
16:26 -8.2 °C -11.9 °C 34405.1 hPa ENE 7.7 km/h 7.7 km/h 65 % 0 mm 234.0 W/m2 CLR
16:31 -8.2 °C -11.9 °C 34395 hPa East 9 km/h 9 km/h 65 % 0 mm 207.0 W/m2 CLR
16:36 -8.3 °C -12 °C 34405.1 hPa East 15 km/h 15 km/h 65 % 0 mm 216.0 W/m2 CLR
16:42 -8.4 °C -12 °C 34405.1 hPa East 10.3 km/h 10.3 km/h 66 % 0 mm 193.0 W/m2 CLR
16:46 -8.6 °C -12.1 °C 34405.1 hPa East 20.9 km/h 20.9 km/h 66 % 0 mm 169.0 W/m2 CLR
16:52 -8.6 °C -12 °C 34405.1 hPa East 10.3 km/h 10.3 km/h 67 % 0 mm 149.0 W/m2 CLR
16:57 -8.7 °C -12.1 °C 34405.1 hPa East 17.9 km/h 17.9 km/h 67 % 0 mm 141.0 W/m2 CLR
17:02 -8.8 °C -12.1 °C 34405.1 hPa East 9 km/h 9 km/h 68 % 0 mm 118.0 W/m2 CLR
17:07 -8.8 °C -12.1 °C 34405.1 hPa East 9 km/h 9 km/h 68 % 0 mm 86.0 W/m2 CLR
17:12 -8.9 °C -12.2 °C 34405.1 hPa East 11.9 km/h   68 % 0 mm 76.0 W/m2 CLR
17:17 -9 °C -12.3 °C 34405.1 hPa East 9 km/h   68 % 0 mm 70.0 W/m2 FEW
17:22 -9.1 °C -12.2 °C 34405.1 hPa Calm   0.5 km/h 69 % 0 mm 63.0 W/m2 SCT
17:27 -9.1 °C -12.3 °C 34418.7 hPa ENE 9 km/h 9 km/h 69 % 0 mm 49.0 W/m2 SCT
17:32 -9.2 °C -12.2 °C 34418.7 hPa Calm     70 % 0 mm 46.0 W/m2 SCT
17:37 -9.3 °C -12.3 °C 34418.7 hPa Calm     70 % 0 mm 39.0 W/m2 BKN
17:42 -9.3 °C -12.3 °C 34418.7 hPa Calm     71 % 0 mm 35.0 W/m2 BKN
17:47 -9.4 °C -12.3 °C 34418.7 hPa Calm     71 % 0 mm 28.0 W/m2 BKN
17:52 -9.6 °C -12.3 °C 34418.7 hPa Calm     72 % 0 mm 25.0 W/m2 BKN
17:57 -9.6 °C -12.4 °C 34418.7 hPa Calm     72 % 0 mm 19.0 W/m2 BKN
18:02 -9.7 °C -12.4 °C 34428.8 hPa Calm     72 % 0 mm 12.0 W/m2 BKN
18:07 -9.8 °C -12.4 °C 34428.8 hPa Calm     73 % 0 mm 9.0 W/m2 BKN
18:12 -9.9 °C -12.6 °C 34428.8 hPa Calm     73 % 0 mm 0.0 W/m2 OVC
18:17 -9.9 °C -12.5 °C 34428.8 hPa Calm     74 % 0 mm 0.0 W/m2 OVC
18:22 -10.1 °C -12.6 °C 34428.8 hPa Calm     74 % 0 mm 0.0 W/m2 OVC
18:27 -10.1 °C -12.6 °C 34428.8 hPa Calm     75 % 0 mm 0.0 W/m2 CLR
18:32 -10.2 °C -12.5 °C 34428.8 hPa Calm     76 % 0 mm 0.0 W/m2 CLR
18:37 -10.3 °C -12.6 °C 34442.4 hPa Calm     76 % 0 mm 0.0 W/m2 CLR
18:42 -10.4 °C -12.6 °C 34442.4 hPa Calm     77 % 0 mm 0.0 W/m2 CLR
18:47 -10.5 °C -12.7 °C 34442.4 hPa Calm     77 % 0 mm 0.0 W/m2 CLR
18:52 -10.7 °C -12.7 °C 34442.4 hPa Calm     78 % 0 mm 0.0 W/m2 CLR
18:57 -10.8 °C -12.8 °C 34442.4 hPa Calm     79 % 0 mm 0.0 W/m2 CLR
19:02 -10.9 °C -12.8 °C 34442.4 hPa Calm     80 % 0 mm 0.0 W/m2 CLR
19:07 -11.1 °C -12.9 °C 34442.4 hPa Calm     80 % 0 mm 0.0 W/m2 CLR
19:12 -11.3 °C -13.1 °C 34442.4 hPa Calm     80 % 0 mm 0.0 W/m2 CLR
19:17 -11.4 °C -13 °C 34442.4 hPa Calm     82 % 0 mm 0.0 W/m2 CLR
19:22 -11.6 °C -13.2 °C 34442.4 hPa Calm     83 % 0 mm 0.0 W/m2 CLR
19:27 -11.8 °C -13.2 °C 34442.4 hPa Calm     84 % 0 mm 0.0 W/m2 CLR
19:32 -11.9 °C -13.2 °C 34442.4 hPa Calm     85 % 0 mm 0.0 W/m2 CLR
19:37 -12.1 °C -13.4 °C 34452.6 hPa Calm     85 % 0 mm 0.0 W/m2 CLR
19:42 -12.2 °C -13.6 °C 34452.6 hPa Calm     85 % 0 mm 0.0 W/m2 CLR
19:47 -12.4 °C -13.6 °C 34452.6 hPa Calm     86 % 0 mm 0.0 W/m2 CLR
19:52 -12.4 °C -13.6 °C 34452.6 hPa Calm     87 % 0 mm 0.0 W/m2 CLR
19:57 -12.6 °C -13.7 °C 34452.6 hPa Calm     87 % 0 mm 0.0 W/m2 CLR
20:02 -12.6 °C -13.7 °C 34452.6 hPa Calm     88 % 0 mm 0.0 W/m2 CLR
20:07 -12.7 °C -13.7 °C 34452.6 hPa Calm     88 % 0 mm 0.0 W/m2 CLR
20:12 -12.7 °C -13.8 °C 34452.6 hPa Calm     88 % 0 mm 0.0 W/m2 CLR
20:17 -12.8 °C -13.8 °C 34452.6 hPa Calm     88 % 0 mm 0.0 W/m2 CLR
20:22 -12.8 °C -13.8 °C 34452.6 hPa Calm     89 % 0 mm 0.0 W/m2 CLR
20:27 -12.9 °C -13.8 °C 34452.6 hPa Calm     89 % 0 mm 0.0 W/m2 CLR
20:32 -13 °C -13.9 °C 34452.6 hPa Calm     89 % 0 mm 0.0 W/m2 CLR
20:37 -13.1 °C -14 °C 34462.7 hPa Calm     89 % 0 mm 0.0 W/m2 CLR
20:42 -13.1 °C -13.9 °C 34462.7 hPa Calm     90 % 0 mm 0.0 W/m2 CLR
20:47 -13.1 °C -14 °C 34462.7 hPa Calm     90 % 0 mm 0.0 W/m2 CLR
20:52 -13.2 °C -14 °C 34462.7 hPa Calm     90 % 0 mm 0.0 W/m2 CLR
20:57 -13.2 °C -14 °C 34462.7 hPa Calm     90 % 0 mm 0.0 W/m2 CLR
21:02 -13.2 °C -14.1 °C 34462.7 hPa Calm     90 % 0 mm 0.0 W/m2 CLR
21:07 -13.3 °C -14.1 °C 34462.7 hPa Calm     90 % 0 mm 0.0 W/m2 CLR
21:12 -13.4 °C -14.2 °C 34462.7 hPa Calm     90 % 0 mm 0.0 W/m2 CLR
21:17 -13.4 °C -14.3 °C 34476.3 hPa Calm     90 % 0 mm 0.0 W/m2 CLR
21:22 -13.6 °C -14.4 °C 34476.3 hPa Calm     90 % 0 mm 0.0 W/m2 CLR
21:27 -13.6 °C -14.3 °C 34476.3 hPa Calm     91 % 0 mm 0.0 W/m2 CLR
21:32 -13.7 °C -14.4 °C 34476.3 hPa Calm     91 % 0 mm 0.0 W/m2 CLR
21:37 -13.7 °C -14.4 °C 34476.3 hPa Calm     91 % 0 mm 0.0 W/m2 CLR
21:42 -13.7 °C -14.5 °C 34476.3 hPa Calm     91 % 0 mm 0.0 W/m2 CLR
21:47 -13.7 °C -14.5 °C 34476.3 hPa Calm     91 % 0 mm 0.0 W/m2 CLR
21:52 -13.8 °C -14.6 °C 34476.3 hPa Calm     91 % 0 mm 0.0 W/m2 CLR
21:57 -13.9 °C -14.7 °C 34476.3 hPa Calm     91 % 0 mm 0.0 W/m2 CLR
22:02 -14 °C -14.8 °C 34476.3 hPa Calm     91 % 0 mm 0.0 W/m2 CLR
22:07 -14 °C -14.8 °C 34476.3 hPa Calm     91 % 0 mm 0.0 W/m2 CLR
22:12 -14.1 °C -14.8 °C 34476.3 hPa Calm     91 % 0 mm 0.0 W/m2 CLR
22:17 -14.1 °C -14.7 °C 34476.3 hPa Calm     92 % 0 mm 0.0 W/m2 CLR
22:22 -14.1 °C -14.7 °C 34476.3 hPa Calm     92 % 0 mm 0.0 W/m2 CLR
22:27 -14.1 °C -14.8 °C 34476.3 hPa Calm     92 % 0 mm 0.0 W/m2 CLR
22:32 -14.1 °C -14.8 °C 34476.3 hPa Calm     92 % 0 mm 0.0 W/m2 CLR
22:37 -14.2 °C -14.9 °C 34476.3 hPa Calm     91 % 0 mm 0.0 W/m2 CLR
22:42 -14.3 °C -14.9 °C 34476.3 hPa Calm     92 % 0 mm 0.0 W/m2 CLR
22:47 -14.3 °C -15 °C 34476.3 hPa Calm     92 % 0 mm 0.0 W/m2 CLR
22:53 -14.4 °C -15.1 °C 34476.3 hPa Calm     92 % 0 mm 0.0 W/m2 CLR
22:58 -14.4 °C -15.1 °C 34476.3 hPa Calm     92 % 0 mm 0.0 W/m2 CLR
23:03 -14.4 °C -15.1 °C 34476.3 hPa Calm     92 % 0 mm 0.0 W/m2 CLR
23:08 -14.3 °C -15 °C 34476.3 hPa Calm     92 % 0 mm 0.0 W/m2 CLR
23:13 -14.3 °C -15.1 °C 34476.3 hPa Calm     92 % 0 mm 0.0 W/m2 CLR
23:18 -14.5 °C -15.2 °C 34476.3 hPa Calm     92 % 0 mm 0.0 W/m2 CLR
23:23 -14.7 °C -15.3 °C 34476.3 hPa Calm     92 % 0 mm 0.0 W/m2 CLR
23:28 -14.7 °C -15.4 °C 34486.4 hPa Calm     92 % 0 mm 0.0 W/m2 CLR
23:33 -14.8 °C -15.4 °C 34486.4 hPa Calm     92 % 0 mm 0.0 W/m2 CLR
23:38 -14.8 °C -15.5 °C 34486.4 hPa Calm     92 % 0 mm 0.0 W/m2 CLR
23:43 -14.8 °C -15.5 °C 34486.4 hPa Calm     92 % 0 mm 0.0 W/m2 CLR
23:48 -14.8 °C -15.4 °C 34486.4 hPa Calm     93 % 0 mm 0.0 W/m2 CLR
23:53 -14.8 °C -15.5 °C 34486.4 hPa Calm     92 % 0 mm 0.0 W/m2 CLR
23:58 -14.8 °C -15.5 °C 34486.4 hPa Calm     92 % 0 mm 0.0 W/m2 CLR
Lo Temps de Massalio
Compliments of Weather Underground - 1.25 mb